Flight Track Log - Related Links

Times and Time Zones

All times are in EST time to prevent confusion due to time zone crossing. See the USC491 flight status page for this flight to view local times or setup timezone preferences in your user account.

Time Position Orientation Groundspeed Altitude Reporting Facility
EST Latitude Longitude Course Direction KTS MPH feet Rate Location/Type
Thu 07:36:33 AM 32.9667 -96.8333 180° South 86 99 1,200  Level Dallas / Fort Worth TRACON
Thu 07:37:10 AM 32.9500 -96.8333 180° South 68 78 2,000 1,052 Climbing Dallas / Fort Worth TRACON
Thu 07:38:10 AM 32.9333 -96.8167 140° Southeast 72 83 2,900 432 Climbing Dallas / Fort Worth TRACON
Thu 07:39:15 AM 32.9000 -96.8333 203° Southwest 103 119 2,900 48 Level Dallas / Fort Worth TRACON
Thu 07:40:15 AM 32.8833 -96.8500 220° Southwest 110 127 3,000 500 Climbing Dallas / Fort Worth TRACON
Thu 07:41:15 AM 32.8500 -96.8667 203° Southwest 96 110 3,900 450 Climbing Dallas / Fort Worth TRACON
Thu 07:42:15 AM 32.8167 -96.8667 180° South 126 145 3,900  Level Dallas / Fort Worth TRACON
Thu 07:43:16 AM 32.7833 -96.8833 203° Southwest 127 146 3,900  Level Dallas / Fort Worth TRACON
Thu 07:44:15 AM 32.7500 -96.8833 180° South 131 151 3,900  Level Dallas / Fort Worth TRACON
Thu 07:45:15 AM 32.7167 -96.9000 203° Southwest 128 147 3,900  Level Dallas / Fort Worth TRACON
Thu 07:46:10 AM 32.6833 -96.9000 180° South 128 147 3,900 522 Level Dallas / Fort Worth TRACON
Thu 07:47:10 AM 32.6500 -96.9000 180° South 92 106 4,900 952 Climbing Dallas / Fort Worth TRACON
Thu 07:48:16 AM 32.6333 -96.9167 220° Southwest 89 102 5,900 857 Climbing Dallas / Fort Worth TRACON
Thu 07:49:16 AM 32.6000 -96.9333 203° Southwest 95 109 6,700 857 Climbing Dallas / Fort Worth TRACON
Thu 07:50:15 AM 32.5667 -96.9167 157° South 109 125 7,600 842 Climbing Dallas / Fort Worth TRACON
Thu 07:51:10 AM 32.5500 -96.9167 180° South 105 121 8,300 684 Climbing Dallas / Fort Worth TRACON
Thu 07:52:09 AM 32.5167 -96.9000 157° South 108 124 8,900 275 Climbing Dallas / Fort Worth TRACON
Thu 07:53:21 AM 32.4775 -96.8897 168° South 147 169 8,900  Level Fort Worth Center
Thu 07:54:22 AM 32.4325 -96.8831 173° South 152 175 8,900  Level Fort Worth Center
Thu 07:55:23 AM 32.3903 -96.8792 176° South 151 174 8,900  Level Fort Worth Center
Thu 07:56:24 AM 32.3475 -96.8747 175° South 152 175 8,900  Level Fort Worth Center
Thu 07:57:25 AM 32.3036 -96.8675 172° South 158 182 8,900 -49 Level Fort Worth Center
Thu 07:58:26 AM 32.2606 -96.8544 166° South 160 184 8,800 49 Descending Fort Worth Center
Thu 07:59:27 AM 32.2197 -96.8436 167° South 159 183 9,000 98 Climbing Fort Worth Center
Thu 08:00:28 AM 32.1750 -96.8311 167° South 161 185 9,000  Level Fort Worth Center
Thu 08:01:30 AM 32.1314 -96.8150 163° South 161 185 9,000  Level Fort Worth Center
Thu 08:02:31 AM 32.0875 -96.7997 164° South 163 188 9,000  Level Fort Worth Center
Thu 08:03:32 AM 32.0414 -96.7808 161° South 168 193 9,000  Level Fort Worth Center
Thu 08:04:33 AM 31.9975 -96.7631 161° South 167 192 9,000  Level Fort Worth Center
Thu 08:05:34 AM 31.9525 -96.7450 161° South 168 193 9,000  Level Fort Worth Center
Thu 08:06:35 AM 31.9081 -96.7264 160° South 168 193 9,000  Level Fort Worth Center
Thu 08:07:19 AM 31.8708 -96.7122 162° South 164 189 9,000  Level Houston Center
Thu 08:08:20 AM 31.8253 -96.6964 164° South 166 191 9,000  Level Houston Center
Thu 08:09:21 AM 31.7803 -96.6833 166° South 165 190 9,000  Level Houston Center
Thu 08:10:23 AM 31.7353 -96.6731 169° South 164 189 9,000  Level Houston Center
Thu 08:11:24 AM 31.6906 -96.6614 167° South 161 185 9,000  Level Houston Center
Thu 08:12:25 AM 31.6453 -96.6503 168° South 163 188 9,000  Level Houston Center
Thu 08:13:26 AM 31.6008 -96.6397 169° South 162 186 9,000  Level Houston Center
Thu 08:14:27 AM 31.5561 -96.6281 167° South 162 186 9,000  Level Houston Center
Thu 08:15:28 AM 31.5114 -96.6197 171° South 162 186 9,000  Level Houston Center
Thu 08:16:29 AM 31.4661 -96.6156 176° South 161 185 9,000 -49 Level Houston Center
Thu 08:17:30 AM 31.4211 -96.6119 176° South 161 185 8,900 -49 Descending Houston Center
Thu 08:18:32 AM 31.3761 -96.6072 175° South 160 184 8,900  Level Houston Center
Thu 08:19:33 AM 31.3303 -96.6000 172° South 162 186 8,900  Level Houston Center
Thu 08:20:34 AM 31.2856 -96.5892 168° South 162 186 8,900  Level Houston Center
Thu 08:21:35 AM 31.2403 -96.5728 163° South 166 191 8,900  Level Houston Center
Thu 08:22:36 AM 31.1956 -96.5564 163° South 166 191 8,900  Level Houston Center
Thu 08:23:38 AM 31.1511 -96.5411 164° South 164 189 8,900  Level Houston Center
Thu 08:24:07 AM 31.1219 -96.5308 163° South 166 191 8,900  Level Houston Center
Thu 08:24:39 AM 31.1061 -96.5256 164° South 165 190 8,900 81 Level Houston Center
Thu 08:25:21 AM 31.0661 -96.5150 167° South 166 191 9,000 98 Climbing Houston Center
Thu 08:25:40 AM 31.0533 -96.5097 161° South 166 191 9,000 -98 Level Houston Center
Thu 08:26:22 AM 31.0211 -96.5006 166° South 166 191 8,900 -98 Descending Houston Center
Thu 08:26:41 AM 31.0086 -96.4942 156° South 166 191 8,900  Level Houston Center
Thu 08:27:23 AM 30.9753 -96.4814 162° South 169 194 8,900  Level Houston Center
Thu 08:27:43 AM 30.9622 -96.4781 168° South 169 194 8,900  Level Houston Center
Thu 08:28:30 AM 30.9239 -96.4675 167° South 167 192 8,900  Level Houston Center
Thu 08:28:44 AM 30.9169 -96.4642 158° South 168 193 8,900 98 Level Houston Center
Thu 08:29:31 AM 30.8808 -96.4553 168° South 165 190 9,000  Climbing Houston Center
Thu 08:29:45 AM 30.8731 -96.4514 157° South 162 186 8,900 -109 Descending Houston Center
Thu 08:30:26 AM 30.8422 -96.4425 166° South 164 189 8,900 97 Level Houston Center
Thu 08:30:47 AM 30.8272 -96.4392 169° South 166 191 9,000 90 Climbing Houston Center
Thu 08:31:33 AM 30.7931 -96.4308 168° South 161 185 9,000 -98 Level Houston Center
Thu 08:31:48 AM 30.7836 -96.4278 164° South 162 186 8,900  Descending Houston Center
Thu 08:32:34 AM 30.7481 -96.4189 168° South 161 185 9,000 98 Climbing Houston Center
Thu 08:32:49 AM 30.7392 -96.4172 171° South 161 185 9,000 -97 Level Houston Center
Thu 08:33:36 AM 30.7014 -96.4144 176° South 159 183 8,900 -98 Descending Houston Center
Thu 08:33:50 AM 30.6956 -96.4128 166° South 156 180 8,900  Level Houston Center
Thu 08:34:37 AM 30.6592 -96.4117 178° South 157 181 8,900  Level Houston Center
Thu 08:34:52 AM 30.6508 -96.4106 173° South 158 182 8,900  Level Houston Center
Thu 08:35:26 AM 30.6214 -96.4111 181° South 155 178 8,900  Level Houston Center
Thu 08:35:53 AM 30.6067 -96.4097 175° South 158 182 8,900  Level Houston Center
Thu 08:36:39 AM 30.5686 -96.4072 177° South 155 178 8,900  Level Houston Center
Thu 08:36:54 AM 30.5639 -96.4067 174° South 154 177 8,900  Level Houston Center
Thu 08:37:34 AM 30.5300 -96.3969 166° South 161 185 8,900  Level Houston Center
Thu 08:37:56 AM 30.5206 -96.3917 154° Southeast 163 188 8,900  Level Houston Center
Thu 08:38:35 AM 30.4867 -96.3800 163° South 163 188 8,900  Level Houston Center
Thu 08:38:57 AM 30.4775 -96.3742 151° Southeast 162 186 8,900 -429 Level Houston Center
Thu 08:39:31 AM 30.4475 -96.3625 161° South 165 190 8,500 -689 Descending Houston Center
Thu 08:39:58 AM 30.4317 -96.3544 156° South 169 194 8,200 -740 Descending Houston Center
Thu 08:40:44 AM 30.3847 -96.3406 166° South 184 212 7,600 -581 Descending Houston Center
Thu 08:41:00 AM 30.3817 -96.3378 142° Southeast 181 208 7,600 -764 Level Houston Center
Thu 08:41:39 AM 30.3411 -96.3186 158° South 192 221 6,900 -689 Descending Houston Center
Thu 08:42:01 AM 30.3325 -96.3128 150° Southeast 189 217 6,900 -581 Level Houston Center
Thu 08:42:41 AM 30.2908 -96.2953 160° South 181 208 6,300 -677 Descending Houston Center
Thu 08:43:03 AM 30.2756 -96.2903 164° South 184 212 6,200 -689 Descending Houston Center
Thu 08:43:42 AM 30.2414 -96.2814 167° South 186 214 5,600 -787 Descending Houston Center
Thu 08:44:04 AM 30.2256 -96.2772 167° South 183 211 5,400 -689 Descending Houston Center
Thu 08:44:43 AM 30.1919 -96.2653 163° South 176 203 4,900 -393 Descending Houston Center
Thu 08:45:05 AM 30.1772 -96.2586 159° South 180 207 5,000  Climbing Houston Center
Thu 08:45:44 AM 30.1522 -96.2431 152° Southeast 166 191 4,900  Descending Houston Center
Thu 08:46:07 AM 30.1364 -96.2339 153° Southeast 170 196 5,000  Climbing Houston Center
Thu 08:46:39 AM 30.1128 -96.2233 159° South 159 183 4,900  Descending Houston Center
Thu 08:47:08 AM 30.0964 -96.2131 152° Southeast 161 185 5,000  Climbing Houston Center
Thu 08:47:40 AM 30.0733 -96.2036 160° South 158 182 4,900  Descending Houston Center
Thu 08:48:10 AM 30.0547 -96.1967 162° South 159 183 5,000 66 Climbing Houston Center
Thu 08:49:11 AM 30.0125 -96.1853 167° South 156 180 5,000 -57 Level Houston Center
Thu 08:49:55 AM 29.9744 -96.1761 168° South 157 181 4,900  Descending Houston Center
Thu 08:50:13 AM 29.9697 -96.1744 163° South 157 181 5,000  Climbing Houston Center
Thu 08:50:50 AM 29.9358 -96.1661 168° South 158 182 4,900  Descending Houston Center
Thu 08:51:15 AM 29.9264 -96.1614 157° South 160 184 5,000  Climbing Houston Center
Thu 08:51:51 AM 29.8978 -96.1392 146° Southeast 176 203 4,900  Descending Houston Center
Thu 08:52:16 AM 29.8897 -96.1289 132° Southeast 168 193 5,000  Climbing Houston Center
Thu 08:52:58 AM 29.8608 -96.0975 137° Southeast 170 196 4,900  Descending Houston Center
Thu 08:53:18 AM 29.8492 -96.0833 134° Southeast 170 196 5,000  Climbing Houston Center
Thu 08:53:47 AM 29.8328 -96.0647 135° Southeast 168 193 4,900  Descending Houston Center
Thu 08:54:19 AM 29.8164 -96.0456 135° Southeast 167 192 5,000  Climbing Houston Center
Thu 08:54:54 AM 29.7975 -96.0228 134° Southeast 171 197 4,900  Descending Houston Center
Thu 08:55:21 AM 29.7853 -96.0061 130° Southeast 167 192 5,000  Climbing Houston Center
Thu 08:55:55 AM 29.7625 -95.9811 136° Southeast 167 192 4,900  Descending Houston Center
Thu 08:56:22 AM 29.7528 -95.9669 128° Southeast 168 193 5,000  Climbing Houston Center
Thu 08:56:50 AM 29.7342 -95.9436 133° Southeast 169 194 4,900 -97 Descending Houston Center
Thu 08:57:24 AM 29.7214 -95.9261 130° Southeast 169 194 4,900 -393 Level Houston Center
Thu 08:57:51 AM 29.7192 -95.8922 94° East 194 223 4,500 -581 Descending Houston Center
Thu 08:58:26 AM 29.7206 -95.8656 87° East 184 212 4,300 -492 Descending Houston Center
Thu 08:58:52 AM 29.7203 -95.8344 91° East 185 213 4,000 -197 Descending Houston Center
Thu 08:59:27 AM 29.7194 -95.8081 92° East 183 211 4,100 -90 Climbing Houston Center
Thu 08:59:59 AM 29.7186 -95.7672 91° East 184 212 3,900 -97 Descending Houston Center
Thu 09:00:29 AM 29.7192 -95.7492 88° East 183 211 4,000 -109 Climbing Houston Center
Thu 09:00:54 AM 29.7183 -95.7169 92° East 185 213 3,800 -393 Descending Houston Center
Thu 09:01:30 AM 29.7164 -95.6786 93° East 184 212 3,600 -492 Descending Houston Center
Thu 09:01:55 AM 29.7169 -95.6544 88° East 182 209 3,300 -484 Descending Houston Center
Thu 09:02:32 AM 29.7186 -95.6200 87° East 184 212 3,100 -393 Descending Houston Center
Thu 09:02:56 AM 29.7242 -95.5958 75° East 187 215 2,900 -194 Descending Houston Center
Thu 09:03:34 AM 29.7236 -95.5636 91° East 185 213 2,900 -269 Level Houston Center
Thu 09:04:03 AM 29.7267 -95.5306 84° East 190 219 2,600 -533 Descending Houston Center
Thu 09:05:04 AM 29.7233 -95.4686 94° East 182 209 2,100 -328 Descending Houston Center
Thu 09:06:11 AM 29.7178 -95.4092 96° East 168 193 1,900 -148 Descending Houston Center
Thu 09:07:06 AM 29.7094 -95.3619 101° East 158 182 1,800 -414 Descending Houston Center
Thu 09:08:07 AM 29.6831 -95.3267 131° Southeast 143 165 1,100 -738 Descending Houston Center
Thu 09:09:08 AM 29.6594 -95.2983 134° Southeast 104 120 300 -787 Descending Houston Center
Thu 09:11:00 AM 29.6454 -95.2789 99° East  Level Estimated

Login

Don't have an account? Register now (free) for customized features, flight alerts, and more!